NWL weather

Waldron Field Nolf Airport
Corpus Christi, Texas, United States

Public forecast

Using degrees Fahrenheit for public forecast. Weather courtesy of forecast.io.

Closest aviation weather report (METAR) to Waldron Field Nolf Airport

Closest report is Corpus Christi Naval Air Station/Truax Field, 3.6 nm (6.7 km) NNE. Retrieved 2019/12/15 17:56 UTC (8 minutes ago):

KNGP 151756Z AUTO 17015G22KT 10SM CLR 24/21 A2981 RMK AO2 SLP094 T02440211 10244 20189 58007

Closest aviation forecast (TAF) to Waldron Field Nolf Airport

Forecast is more than 12 hours old.

Closest forecast is Corpus Christi Naval Air Station/Truax Field, 3.6 nm (6.7 km) NNE. Retrieved 2015/05/10 23:09 UTC (5 years ago):

TAF KNGP 092300Z 0923/1023 14020G30KT 9999 FEW025 SCT150 QNH2967INS TEMPO 0923/1003 BKN010 OVC030 BECMG 1003/1005 14016G22KT 8000 BR OVC010 QNH2969INS BECMG 1013/1015 15018G28KT BKN020 QNH2970INS AUTOMATED SENSOR METWATCH 0923 TIL 1111 TX30/0923Z TN25/1006Z